Time;durP1;ratioP1;P1;durP2;ratioP2;P2;SDS_P1;SDS_P2;PMS_P1;PMS_P2;Temp;Humidity;BMP_temperature;BMP_pressure;BME280_temperature;BME280_humidity;BME280_pressure;Samples;Min_cycle;Max_cycle;Signal;HPM_P1;HPM_P2
2024/03/29 00:02:04;;;;;;;0.50;0.20;;;22.40;1.00;;;;;;2612728;47;20507;-64
2024/03/29 00:04:30;;;;;;;0.50;0.20;;;22.40;1.00;;;;;;2612057;54;20158;-73
2024/03/29 00:06:55;;;;;;;0.50;0.20;;;22.30;1.00;;;;;;2612946;54;20170;-72
2024/03/29 00:09:21;;;;;;;0.50;0.20;;;22.40;1.00;;;;;;2613640;47;20237;-73
2024/03/29 00:11:47;;;;;;;0.50;0.20;;;22.30;1.00;;;;;;2613295;54;20502;-73
2024/03/29 00:14:13;;;;;;;0.50;0.20;;;22.30;1.00;;;;;;2612612;54;20174;-71
2024/03/29 00:16:38;;;;;;;0.50;0.20;;;22.30;1.00;;;;;;2612920;54;20498;-72
2024/03/29 00:19:04;;;;;;;0.60;0.20;;;22.30;1.00;;;;;;2612497;54;20162;-73
2024/03/29 00:21:31;;;;;;;0.50;0.20;;;22.30;1.00;;;;;;2612802;54;20188;-73
2024/03/29 00:23:56;;;;;;;0.50;0.20;;;22.30;1.00;;;;;;2613012;54;20980;-72
2024/03/29 00:26:22;;;;;;;0.53;0.20;;;22.30;1.00;;;;;;2613146;54;20435;-72
2024/03/29 00:28:48;;;;;;;0.60;0.20;;;22.20;1.00;;;;;;2614366;54;20154;-73
2024/03/29 00:31:13;;;;;;;0.50;0.20;;;22.20;1.00;;;;;;2614299;39;20672;-73
2024/03/29 00:33:39;;;;;;;0.50;0.20;;;22.20;1.00;;;;;;2613767;47;20167;-72
2024/03/29 00:36:05;;;;;;;0.50;0.20;;;22.20;1.00;;;;;;2614180;54;20202;-73
2024/03/29 00:38:31;;;;;;;0.60;0.20;;;22.10;1.00;;;;;;2614132;54;20270;-72
2024/03/29 00:40:56;;;;;;;0.50;0.20;;;22.20;1.00;;;;;;2614299;54;20724;-73
2024/03/29 00:43:22;;;;;;;0.50;0.20;;;22.10;1.00;;;;;;2613958;54;20162;-74
2024/03/29 00:45:48;;;;;;;0.50;0.20;;;22.10;1.00;;;;;;2614014;51;20195;-73
2024/03/29 00:48:15;;;;;;;0.60;0.20;;;22.10;1.00;;;;;;2613630;54;20743;-73
2024/03/29 00:50:41;;;;;;;0.50;0.20;;;22.10;1.00;;;;;;2612780;54;20257;-74
2024/03/29 00:53:06;;;;;;;0.60;0.20;;;22.10;1.00;;;;;;2613305;47;20466;-72
2024/03/29 00:55:32;;;;;;;0.60;0.20;;;22.10;1.00;;;;;;2613934;51;20162;-60
2024/03/29 00:57:58;;;;;;;0.60;0.20;;;22.10;1.00;;;;;;2613011;54;20179;-62
2024/03/29 01:00:24;;;;;;;0.60;0.20;;;22.00;1.00;;;;;;2613109;54;20197;-61
2024/03/29 01:02:50;;;;;;;0.50;0.20;;;22.00;1.00;;;;;;2612082;54;20262;-61
2024/03/29 01:05:15;;;;;;;0.50;0.20;;;22.10;1.00;;;;;;2612959;47;20471;-66
2024/03/29 01:07:41;;;;;;;0.60;0.20;;;22.00;1.00;;;;;;2612777;47;20166;-66
2024/03/29 01:10:08;;;;;;;0.50;0.20;;;22.00;1.00;;;;;;2613444;54;20728;-65
2024/03/29 01:12:35;;;;;;;0.50;0.20;;;22.00;1.00;;;;;;2614368;39;20821;-66
2024/03/29 01:15:02;;;;;;;0.50;0.20;;;22.00;1.00;;;;;;2614502;39;20816;-72
2024/03/29 01:17:28;;;;;;;0.50;0.20;;;22.00;1.00;;;;;;2614006;54;20950;-73
2024/03/29 01:19:54;;;;;;;0.50;0.20;;;22.00;1.00;;;;;;2614008;47;20402;-71
2024/03/29 01:22:19;;;;;;;0.60;0.50;;;21.90;1.00;;;;;;2613731;54;20495;-72
2024/03/29 01:24:45;;;;;;;0.60;0.20;;;22.00;1.00;;;;;;2614077;54;20262;-73
2024/03/29 01:27:11;;;;;;;0.50;0.20;;;21.90;1.00;;;;;;2613805;47;20166;-74
2024/03/29 01:29:37;;;;;;;0.60;0.20;;;21.90;1.00;;;;;;2614248;54;20759;-73
2024/03/29 01:32:03;;;;;;;0.50;0.20;;;21.90;1.00;;;;;;2613672;54;20167;-73
2024/03/29 01:34:29;;;;;;;0.60;0.30;;;21.90;1.00;;;;;;2613968;54;20407;-73
2024/03/29 01:36:54;;;;;;;0.60;0.20;;;21.90;1.00;;;;;;2613478;54;20492;-73
2024/03/29 01:39:24;;;;;;;0.50;0.20;;;21.90;1.00;;;;;;2613417;47;20173;-73
2024/03/29 01:41:50;;;;;;;0.60;0.20;;;21.90;1.00;;;;;;2614305;31;20722;-72
2024/03/29 01:44:16;;;;;;;0.50;0.20;;;21.90;1.00;;;;;;2613860;54;20492;-73
2024/03/29 01:46:42;;;;;;;0.60;0.20;;;21.80;1.00;;;;;;2614163;54;20158;-72
2024/03/29 01:49:09;;;;;;;0.50;0.20;;;21.90;1.00;;;;;;2613991;54;20423;-72
2024/03/29 01:51:39;;;;;;;0.60;0.20;;;21.80;1.00;;;;;;2614170;39;20650;-72
2024/03/29 01:54:06;;;;;;;0.60;0.20;;;21.80;1.00;;;;;;2613467;54;20454;-72
2024/03/29 01:56:32;;;;;;;0.60;0.20;;;21.90;1.00;;;;;;2612705;54;21042;-73
2024/03/29 01:58:59;;;;;;;0.60;0.20;;;21.80;1.00;;;;;;2614258;39;20847;-72
2024/03/29 02:01:27;;;;;;;0.50;0.20;;;21.80;1.00;;;;;;2613073;47;20463;-72
2024/03/29 02:03:55;;;;;;;0.50;0.20;;;21.90;1.00;;;;;;2613463;54;20403;-73
2024/03/29 02:06:21;;;;;;;0.50;0.20;;;21.80;1.00;;;;;;2612809;54;20462;-64
2024/03/29 02:08:52;;;;;;;0.60;0.20;;;21.80;1.00;;;;;;2613564;47;20483;-64
2024/03/29 02:11:18;;;;;;;0.50;0.20;;;21.80;1.00;;;;;;2613732;49;20194;-63
2024/03/29 02:13:45;;;;;;;0.50;0.20;;;21.80;1.00;;;;;;2613409;47;20407;-64
2024/03/29 02:16:10;;;;;;;0.60;0.20;;;21.80;1.00;;;;;;2613993;54;20425;-73
2024/03/29 02:18:36;;;;;;;0.50;0.20;;;21.80;1.00;;;;;;2614242;54;20427;-72
2024/03/29 02:21:02;;;;;;;0.50;0.20;;;21.80;1.00;;;;;;2613866;54;20180;-72
2024/03/29 02:23:29;;;;;;;0.50;0.20;;;21.80;1.00;;;;;;2613903;39;20606;-73
2024/03/29 02:25:56;;;;;;;0.50;0.20;;;21.80;1.00;;;;;;2613831;54;20193;-73
2024/03/29 02:28:22;;;;;;;0.50;0.20;;;21.80;1.00;;;;;;2613731;47;20507;-72
2024/03/29 02:30:49;;;;;;;0.50;0.20;;;21.80;1.00;;;;;;2614300;54;20427;-72
2024/03/29 02:33:15;;;;;;;0.50;0.20;;;21.80;1.00;;;;;;2613757;54;20408;-72
2024/03/29 02:35:41;;;;;;;0.50;0.20;;;21.80;1.00;;;;;;2614539;39;20765;-73
2024/03/29 02:38:06;;;;;;;0.60;0.20;;;21.80;1.00;;;;;;2613839;47;20721;-73
2024/03/29 02:40:32;;;;;;;0.60;0.20;;;21.80;1.00;;;;;;2614272;54;20167;-73
2024/03/29 02:42:57;;;;;;;0.50;0.20;;;21.70;1.00;;;;;;2614209;54;20154;-72
2024/03/29 02:45:23;;;;;;;0.60;0.20;;;21.70;1.00;;;;;;2614729;39;20663;-73
2024/03/29 02:47:49;;;;;;;0.60;0.20;;;21.70;1.00;;;;;;2613871;54;20223;-73
2024/03/29 02:50:16;;;;;;;0.60;0.20;;;21.70;1.00;;;;;;2613676;47;20174;-73
2024/03/29 02:52:42;;;;;;;0.50;0.20;;;21.70;1.00;;;;;;2613407;54;20196;-73
2024/03/29 02:55:10;;;;;;;0.50;0.20;;;21.70;1.00;;;;;;2613902;54;20419;-73
2024/03/29 02:57:36;;;;;;;0.60;0.20;;;21.70;1.00;;;;;;2613755;47;20426;-73
2024/03/29 03:00:07;;;;;;;0.50;0.20;;;21.70;1.00;;;;;;2613230;47;20531;-73
2024/03/29 03:02:38;;;;;;;0.60;0.20;;;21.70;1.00;;;;;;2613126;51;20420;-73
2024/03/29 03:05:04;;;;;;;0.50;0.20;;;21.70;1.00;;;;;;2613355;54;20419;-73
2024/03/29 03:12:58;;;;;;;0.60;0.20;;;21.70;1.00;;;;;;2614817;39;20619;-73
2024/03/29 03:15:23;;;;;;;0.60;0.30;;;21.70;1.00;;;;;;2613971;54;20423;-73
2024/03/29 03:17:49;;;;;;;0.50;0.20;;;21.70;1.00;;;;;;2613903;54;20174;-73
2024/03/29 03:20:16;;;;;;;0.57;0.20;;;21.70;1.00;;;;;;2613506;54;20246;-73
2024/03/29 03:22:42;;;;;;;0.50;0.20;;;21.70;1.00;;;;;;2613466;54;20178;-73
2024/03/29 03:25:08;;;;;;;0.60;0.20;;;21.70;1.00;;;;;;2612593;47;20946;-64
2024/03/29 03:27:34;;;;;;;0.50;0.20;;;21.70;1.00;;;;;;2612898;54;20430;-63
2024/03/29 03:29:59;;;;;;;0.60;0.20;;;21.70;1.00;;;;;;2613199;39;20930;-63
2024/03/29 03:32:25;;;;;;;0.50;0.20;;;21.70;1.00;;;;;;2612849;47;20716;-63
2024/03/29 03:34:51;;;;;;;0.50;0.20;;;21.70;1.00;;;;;;2613346;54;20173;-65
2024/03/29 03:37:16;;;;;;;0.50;0.20;;;21.70;1.00;;;;;;2613384;39;20580;-65
2024/03/29 03:39:42;;;;;;;0.60;0.20;;;21.70;1.00;;;;;;2613064;47;20170;-65
2024/03/29 03:42:08;;;;;;;0.50;0.20;;;21.70;1.00;;;;;;2612919;54;20212;-65
2024/03/29 03:44:33;;;;;;;0.60;0.20;;;21.70;1.00;;;;;;2612642;54;21127;-65
2024/03/29 03:46:59;;;;;;;0.50;0.20;;;21.70;1.00;;;;;;2612696;54;20163;-66
2024/03/29 03:49:24;;;;;;;0.50;0.20;;;21.70;1.00;;;;;;2613255;39;20649;-65
2024/03/29 03:51:50;;;;;;;0.57;0.20;;;21.70;1.00;;;;;;2612594;54;20203;-66
2024/03/29 03:54:16;;;;;;;0.50;0.20;;;21.60;1.00;;;;;;2612521;39;20557;-65
2024/03/29 03:56:41;;;;;;;0.50;0.20;;;21.60;1.00;;;;;;2612019;54;20170;-66
2024/03/29 03:59:07;;;;;;;0.50;0.30;;;21.60;1.00;;;;;;2612053;54;20699;-65
2024/03/29 04:01:34;;;;;;;0.50;0.20;;;21.60;1.00;;;;;;2613236;54;20258;-65
2024/03/29 04:04:00;;;;;;;0.60;0.20;;;21.60;1.00;;;;;;2613972;46;20158;-63
2024/03/29 04:06:26;;;;;;;0.50;0.20;;;21.70;1.00;;;;;;2614560;54;20477;-64
2024/03/29 04:08:52;;;;;;;0.60;0.20;;;21.60;1.00;;;;;;2614599;47;20788;-65
2024/03/29 04:11:18;;;;;;;0.97;0.87;;;21.70;1.00;;;;;;2614719;54;20158;-65
2024/03/29 04:13:45;;;;;;;0.53;0.20;;;21.60;1.00;;;;;;2614423;54;20704;-65
2024/03/29 04:16:11;;;;;;;0.50;0.20;;;21.60;1.00;;;;;;2615041;39;20584;-65
2024/03/29 04:18:37;;;;;;;0.60;0.20;;;21.60;1.00;;;;;;2614999;54;20427;-64
2024/03/29 04:21:04;;;;;;;0.60;0.20;;;21.60;1.00;;;;;;2615224;47;20170;-64
2024/03/29 04:23:30;;;;;;;0.50;0.20;;;21.60;1.00;;;;;;2614654;54;20237;-65
2024/03/29 04:25:57;;;;;;;0.60;0.20;;;21.60;1.00;;;;;;2614881;39;20676;-64
2024/03/29 04:28:23;;;;;;;0.60;0.20;;;21.60;1.00;;;;;;2614430;54;20945;-64
2024/03/29 04:30:57;;;;;;;0.60;0.20;;;21.60;1.00;;;;;;2614873;54;20434;-64
2024/03/29 04:33:23;;;;;;;0.60;0.20;;;21.60;1.00;;;;;;2614515;54;20430;-64
2024/03/29 04:36:01;;;;;;;0.60;0.20;;;21.60;1.00;;;;;;2614087;54;20441;-65
2024/03/29 04:38:27;;;;;;;0.60;0.20;;;21.20;1.00;;;;;;2614616;54;20991;-64
2024/03/29 04:40:55;;;;;;;0.50;0.20;;;21.60;1.00;;;;;;2615496;31;20875;-65
2024/03/29 04:43:26;;;;;;;0.50;0.20;;;21.60;1.00;;;;;;2614893;54;20403;-66
2024/03/29 04:46:12;;;;;;;0.50;0.20;;;21.60;1.00;;;;;;2614189;54;20428;-60
2024/03/29 04:48:38;;;;;;;0.50;0.20;;;21.60;1.00;;;;;;2614466;39;20762;-61
2024/03/29 04:51:05;;;;;;;0.50;0.20;;;21.60;1.00;;;;;;2614743;39;20920;-60
2024/03/29 04:53:30;;;;;;;0.50;0.20;;;21.60;1.00;;;;;;2614296;47;20455;-61
2024/03/29 04:55:58;;;;;;;0.50;0.20;;;21.60;1.00;;;;;;2614424;47;20499;-60
2024/03/29 04:58:24;;;;;;;0.50;0.20;;;21.60;1.00;;;;;;2614042;54;20163;-62
2024/03/29 05:00:51;;;;;;;0.60;0.20;;;21.60;1.00;;;;;;2614627;31;20891;-61
2024/03/29 05:03:18;;;;;;;0.50;0.20;;;21.50;1.00;;;;;;2613450;54;20403;-62
2024/03/29 05:05:45;;;;;;;0.50;0.20;;;21.60;1.00;;;;;;2613560;46;20419;-60
2024/03/29 05:08:11;;;;;;;0.50;0.20;;;21.60;1.00;;;;;;2614194;54;20426;-61
2024/03/29 05:10:37;;;;;;;0.50;0.20;;;21.60;1.00;;;;;;2614025;54;20427;-61
2024/03/29 05:13:03;;;;;;;0.50;0.20;;;21.60;1.00;;;;;;2613333;54;20169;-62
2024/03/29 05:15:29;;;;;;;0.50;0.20;;;21.60;1.00;;;;;;2613296;54;20415;-59
2024/03/29 05:17:54;;;;;;;0.60;0.20;;;21.60;1.00;;;;;;2613642;39;20761;-61
2024/03/29 05:20:20;;;;;;;0.50;0.20;;;21.60;1.00;;;;;;2612731;47;20162;-59
2024/03/29 05:22:46;;;;;;;0.50;0.20;;;21.60;1.00;;;;;;2612462;54;20174;-61
2024/03/29 05:25:11;;;;;;;0.50;0.20;;;21.60;1.00;;;;;;2613667;54;20201;-60
2024/03/29 05:27:37;;;;;;;0.50;0.20;;;21.60;1.00;;;;;;2613249;54;20155;-61
2024/03/29 05:30:04;;;;;;;0.50;0.20;;;21.50;1.00;;;;;;2613263;54;20181;-61
2024/03/29 05:32:30;;;;;;;0.50;0.20;;;21.60;1.00;;;;;;2612842;47;20162;-61
2024/03/29 05:34:56;;;;;;;0.50;0.20;;;21.50;1.00;;;;;;2613506;54;20420;-63
2024/03/29 05:37:24;;;;;;;0.50;0.20;;;21.50;1.00;;;;;;2613546;39;20852;-64
2024/03/29 05:39:58;;;;;;;0.60;0.20;;;21.50;1.00;;;;;;2612655;54;20431;-63
2024/03/29 05:42:27;;;;;;;0.50;0.20;;;21.50;1.00;;;;;;2613341;54;20441;-62
2024/03/29 05:44:53;;;;;;;0.60;0.20;;;21.50;1.00;;;;;;2613552;47;20423;-73
2024/03/29 05:47:20;;;;;;;0.50;0.20;;;21.50;1.00;;;;;;2613622;54;20419;-75
2024/03/29 05:49:45;;;;;;;0.50;0.20;;;21.50;1.00;;;;;;2614146;47;20416;-74
2024/03/29 05:52:14;;;;;;;0.60;0.20;;;21.50;1.00;;;;;;2614349;47;21076;-75
2024/03/29 05:54:43;;;;;;;0.50;0.20;;;21.50;1.00;;;;;;2614448;39;20619;-60
2024/03/29 05:57:09;;;;;;;0.60;0.20;;;21.50;1.00;;;;;;2612803;47;20435;-60
2024/03/29 05:59:36;;;;;;;0.50;0.20;;;21.50;1.00;;;;;;2612605;47;20420;-60
2024/03/29 06:02:02;;;;;;;0.60;0.20;;;21.50;1.00;;;;;;2612299;54;20447;-61
2024/03/29 06:04:35;;;;;;;0.60;0.30;;;21.50;1.00;;;;;;2613244;39;20890;-62
2024/03/29 06:07:05;;;;;;;0.60;0.20;;;21.50;1.00;;;;;;2612727;39;20852;-59
2024/03/29 06:09:33;;;;;;;0.50;0.20;;;21.50;1.00;;;;;;2613617;54;20515;-61
2024/03/29 06:11:59;;;;;;;0.60;0.20;;;21.50;1.00;;;;;;2612777;47;20424;-61
2024/03/29 06:17:24;;;;;;;0.53;0.20;;;21.50;1.00;;;;;;2612648;54;20161;-60
2024/03/29 06:19:50;;;;;;;0.50;0.20;;;21.50;1.00;;;;;;2612610;47;20466;-61
2024/03/29 06:22:17;;;;;;;0.50;0.20;;;21.50;1.00;;;;;;2612792;54;21064;-61
2024/03/29 06:24:44;;;;;;;0.60;0.20;;;21.50;1.00;;;;;;2612500;47;20411;-59
2024/03/29 06:27:10;;;;;;;0.50;0.20;;;21.40;1.00;;;;;;2612686;54;20412;-61
2024/03/29 06:29:36;;;;;;;0.53;0.20;;;21.50;1.00;;;;;;2612642;47;20462;-60
2024/03/29 06:32:02;;;;;;;0.60;0.20;;;21.50;1.00;;;;;;2612911;54;20525;-59
2024/03/29 06:34:31;;;;;;;0.80;0.80;;;21.50;1.00;;;;;;2612862;54;20198;-73
2024/03/29 06:36:57;;;;;;;0.80;0.80;;;21.70;1.00;;;;;;2613819;47;20408;-73
2024/03/29 06:39:22;;;;;;;0.90;0.90;;;21.80;1.00;;;;;;2617276;39;20890;-72
2024/03/29 06:41:48;;;;;;;0.90;0.90;;;21.70;1.00;;;;;;2612762;54;20494;-73
2024/03/29 06:44:14;;;;;;;0.90;0.90;;;21.70;1.00;;;;;;2613206;54;20186;-72
2024/03/29 06:46:40;;;;;;;0.90;0.90;;;21.70;1.00;;;;;;2614378;31;20636;-72
2024/03/29 06:49:06;;;;;;;0.80;0.80;;;21.70;1.00;;;;;;2613187;54;20167;-73
2024/03/29 06:51:31;;;;;;;0.90;0.90;;;21.60;1.00;;;;;;2612993;54;20193;-73
2024/03/29 06:53:57;;;;;;;0.90;0.90;;;21.60;1.00;;;;;;2612989;54;21024;-73
2024/03/29 06:56:23;;;;;;;1.53;1.47;;;21.60;1.00;;;;;;2612814;47;20660;-71
2024/03/29 06:58:48;;;;;;;0.90;0.90;;;21.60;1.00;;;;;;2612316;39;20589;-71
2024/03/29 07:01:14;;;;;;;0.90;0.90;;;21.60;1.00;;;;;;2613239;54;20151;-71
2024/03/29 07:03:41;;;;;;;0.90;0.90;;;21.60;1.00;;;;;;2611036;47;20724;-71
2024/03/29 07:06:06;;;;;;;0.90;0.90;;;21.70;1.00;;;;;;2612954;54;20167;-66
2024/03/29 07:08:32;;;;;;;0.80;0.80;;;21.70;1.00;;;;;;2613103;54;20452;-65
2024/03/29 07:11:02;;;;;;;0.80;0.80;;;21.70;1.00;;;;;;2613689;47;20169;-65
2024/03/29 07:13:32;;;;;;;0.80;0.80;;;21.70;1.00;;;;;;2613368;39;20586;-65
2024/03/29 07:16:01;;;;;;;1.10;1.10;;;21.70;1.00;;;;;;2613282;54;20406;-72
2024/03/29 07:18:30;;;;;;;1.00;0.90;;;21.80;1.00;;;;;;2613136;54;20396;-67
2024/03/29 07:20:55;;;;;;;0.70;0.60;;;22.20;1.00;;;;;;2613131;54;20174;-74
2024/03/29 07:23:21;;;;;;;0.70;0.53;;;22.30;1.00;;;;;;2612416;54;20427;-68
2024/03/29 07:26:20;;;;;;;0.70;0.60;;;22.20;1.00;;;;;;2612605;54;20158;-68
2024/03/29 07:28:45;;;;;;;0.67;0.50;;;22.10;1.00;;;;;;2612257;54;20427;-69
2024/03/29 07:31:11;;;;;;;0.80;0.80;;;22.00;1.00;;;;;;2610760;47;21055;-71
2024/03/29 07:33:37;;;;;;;0.70;0.60;;;22.10;1.00;;;;;;2610843;54;20322;-67
2024/03/29 07:36:04;;;;;;;1.00;1.00;;;22.30;1.00;;;;;;2611415;47;20605;-65
2024/03/29 07:38:30;;;;;;;0.70;0.60;;;22.40;1.00;;;;;;2612073;54;20957;-65
2024/03/29 07:40:56;;;;;;;0.63;0.60;;;22.50;1.00;;;;;;2612234;54;20416;-67
2024/03/29 07:43:22;;;;;;;0.80;0.80;;;22.60;1.00;;;;;;2612369;54;20426;-67
2024/03/29 07:45:49;;;;;;;0.70;0.67;;;22.60;1.00;;;;;;2611852;39;20786;-68
2024/03/29 07:48:16;;;;;;;0.70;0.60;;;22.50;1.00;;;;;;2612204;54;20408;-66
2024/03/29 07:50:43;;;;;;;0.70;0.60;;;22.70;1.00;;;;;;2612111;54;20426;-73
2024/03/29 07:53:09;;;;;;;0.80;0.70;;;22.00;1.00;;;;;;2612605;39;20917;-83
2024/03/29 07:55:39;;;;;;;0.70;0.60;;;20.90;1.00;;;;;;2612718;54;20426;-69
2024/03/29 07:58:05;;;;;;;0.80;0.80;;;20.60;1.00;;;;;;2612590;54;20435;-68
2024/03/29 08:00:32;;;;;;;0.80;0.77;;;20.00;1.00;;;;;;2612096;47;21350;-68
2024/03/29 08:02:58;;;;;;;0.80;0.80;;;19.40;1.00;;;;;;2611837;54;20467;-68
2024/03/29 08:05:24;;;;;;;0.90;0.90;;;18.90;1.00;;;;;;2612432;54;20949;-68
2024/03/29 08:07:50;;;;;;;0.80;0.70;;;18.40;1.00;;;;;;2611800;54;20462;-68
2024/03/29 08:10:16;;;;;;;0.70;0.63;;;18.60;1.00;;;;;;2612423;31;20600;-69
2024/03/29 08:12:42;;;;;;;0.70;0.60;;;19.00;1.00;;;;;;2611605;47;20205;-66
2024/03/29 08:15:08;;;;;;;0.80;0.80;;;19.30;1.00;;;;;;2611051;47;20427;-59
2024/03/29 08:17:34;;;;;;;0.80;0.80;;;19.10;1.00;;;;;;2610801;54;20147;-60
2024/03/29 08:20:00;;;;;;;0.70;0.60;;;19.30;1.00;;;;;;2611174;54;20427;-59
2024/03/29 08:22:28;;;;;;;0.70;0.67;;;19.70;1.00;;;;;;2611018;47;20522;-62
2024/03/29 08:24:54;;;;;;;0.70;0.50;;;20.20;1.00;;;;;;2612345;39;20675;-61
2024/03/29 08:27:20;;;;;;;0.70;0.50;;;20.60;1.00;;;;;;2610853;47;20515;-60
2024/03/29 08:29:45;;;;;;;0.70;0.40;;;21.00;1.00;;;;;;2610014;54;20976;-61
2024/03/29 08:32:12;;;;;;;0.70;0.50;;;21.20;1.00;;;;;;2610623;54;20249;-61
2024/03/29 08:34:38;;;;;;;0.70;0.40;;;20.50;1.00;;;;;;2611559;54;20451;-60
2024/03/29 08:37:04;;;;;;;0.70;0.50;;;20.00;1.00;;;;;;2611861;54;20396;-60
2024/03/29 08:39:32;;;;;;;0.70;0.50;;;20.20;1.00;;;;;;2612266;54;20396;-60
2024/03/29 08:41:59;;;;;;;0.70;0.60;;;20.30;1.00;;;;;;2612080;47;20150;-59
2024/03/29 08:44:25;;;;;;;0.70;0.40;;;20.40;1.00;;;;;;2611412;54;20447;-60
2024/03/29 08:46:53;;;;;;;0.67;0.50;;;20.50;1.00;;;;;;2612665;54;20965;-60
2024/03/29 08:49:19;;;;;;;0.70;0.50;;;20.60;1.00;;;;;;2613361;54;20415;-61
2024/03/29 08:51:44;;;;;;;0.60;0.50;;;20.70;1.00;;;;;;2612879;54;20408;-60
2024/03/29 08:54:10;;;;;;;0.70;0.60;;;20.70;1.00;;;;;;2613320;46;20201;-59
2024/03/29 08:56:37;;;;;;;0.70;0.60;;;20.80;1.00;;;;;;2612898;47;20258;-60
2024/03/29 08:59:07;;;;;;;0.70;0.50;;;20.90;1.00;;;;;;2613279;54;20167;-59
2024/03/29 09:01:33;;;;;;;0.70;0.63;;;20.90;1.00;;;;;;2612820;51;20446;-61
2024/03/29 09:03:59;;;;;;;0.70;0.70;;;20.90;1.00;;;;;;2613341;54;20406;-61
2024/03/29 09:06:25;;;;;;;0.70;0.60;;;21.00;1.00;;;;;;2613116;54;20419;-60
2024/03/29 09:08:50;;;;;;;0.70;0.60;;;21.00;1.00;;;;;;2612626;54;20162;-61
2024/03/29 09:11:16;;;;;;;0.80;0.80;;;21.00;1.00;;;;;;2613295;54;20163;-61
2024/03/29 09:13:42;;;;;;;0.70;0.60;;;21.00;1.00;;;;;;2613470;54;20174;-59
2024/03/29 09:16:08;;;;;;;0.70;0.53;;;21.00;1.00;;;;;;2613023;54;20250;-61
2024/03/29 09:18:34;;;;;;;0.70;0.50;;;21.00;1.00;;;;;;2613435;47;20170;-62
2024/03/29 09:21:00;;;;;;;0.70;0.50;;;21.00;1.00;;;;;;2613363;47;20422;-62
2024/03/29 09:23:29;;;;;;;0.63;0.50;;;21.00;1.00;;;;;;2613667;54;20681;-62
2024/03/29 09:25:56;;;;;;;0.67;0.40;;;21.10;1.00;;;;;;2613670;54;20527;-59
2024/03/29 09:28:24;;;;;;;0.70;0.50;;;21.10;1.00;;;;;;2613434;54;20502;-58
2024/03/29 09:30:50;;;;;;;0.70;0.50;;;21.10;1.00;;;;;;2613352;47;20424;-60
2024/03/29 09:33:16;;;;;;;0.70;0.50;;;21.10;1.00;;;;;;2613419;54;20459;-59
2024/03/29 09:35:43;;;;;;;1.10;1.10;;;21.10;1.00;;;;;;2613196;54;21029;-67
2024/03/29 09:38:09;;;;;;;0.70;0.50;;;21.10;1.00;;;;;;2613371;54;20710;-65
2024/03/29 09:40:34;;;;;;;0.70;0.60;;;21.10;1.00;;;;;;2613327;54;20419;-65
2024/03/29 09:43:04;;;;;;;0.70;0.50;;;21.10;1.00;;;;;;2613731;54;20167;-65
2024/03/29 09:45:35;;;;;;;0.70;0.60;;;21.10;1.00;;;;;;2613708;54;20174;-66
2024/03/29 09:48:04;;;;;;;0.70;0.60;;;21.20;1.00;;;;;;2613380;54;20439;-66
2024/03/29 09:50:31;;;;;;;1.30;1.17;;;21.10;1.00;;;;;;2613388;47;20404;-66
2024/03/29 09:52:58;;;;;;;0.67;0.50;;;21.20;1.00;;;;;;2613923;39;20851;-66
2024/03/29 09:55:24;;;;;;;0.67;0.50;;;21.20;1.00;;;;;;2613320;47;20471;-67
2024/03/29 09:57:50;;;;;;;0.60;0.50;;;21.10;1.00;;;;;;2613108;54;20972;-67
2024/03/29 10:00:17;;;;;;;0.70;0.50;;;21.10;1.00;;;;;;2613307;39;20812;-66
2024/03/29 10:02:44;;;;;;;0.70;0.60;;;21.20;1.00;;;;;;2612175;47;20793;-67
2024/03/29 10:05:12;;;;;;;0.70;0.50;;;21.20;1.00;;;;;;2613349;47;20412;-66
2024/03/29 10:07:39;;;;;;;0.70;0.50;;;21.10;1.00;;;;;;2613071;47;20423;-66
2024/03/29 10:10:05;;;;;;;0.70;0.60;;;21.20;1.00;;;;;;2613243;54;20423;-66
2024/03/29 10:12:31;;;;;;;0.70;0.60;;;21.20;1.00;;;;;;2613469;54;20403;-66
2024/03/29 10:15:08;;;;;;;0.70;0.50;;;21.20;1.00;;;;;;2613409;47;21128;-66
2024/03/29 10:17:34;;;;;;;0.60;0.50;;;21.20;1.00;;;;;;2613056;54;20339;-65
2024/03/29 10:20:04;;;;;;;0.70;0.53;;;21.20;1.00;;;;;;2613382;47;21113;-66
2024/03/29 10:22:40;;;;;;;0.70;0.57;;;21.20;1.00;;;;;;2613251;54;20431;-67
2024/03/29 10:25:06;;;;;;;2.20;2.00;;;21.20;1.00;;;;;;2613087;47;20546;-62
2024/03/29 10:27:32;;;;;;;0.70;0.50;;;21.20;1.00;;;;;;2613125;47;20434;-62
2024/03/29 10:29:59;;;;;;;0.70;0.60;;;21.20;1.00;;;;;;2613256;54;20426;-63
2024/03/29 10:32:25;;;;;;;0.70;0.60;;;21.20;1.00;;;;;;2613810;39;20797;-62
2024/03/29 10:34:51;;;;;;;0.70;0.50;;;21.20;1.00;;;;;;2614028;39;20846;-73
2024/03/29 10:37:25;;;;;;;0.70;0.50;;;21.20;1.00;;;;;;2612848;54;20960;-73
2024/03/29 10:39:50;;;;;;;0.70;0.50;;;21.20;1.00;;;;;;2613213;54;20408;-73
2024/03/29 10:42:18;;;;;;;0.70;0.50;;;21.20;1.00;;;;;;2612933;50;20418;-73
2024/03/29 10:44:44;;;;;;;0.60;0.50;;;21.20;1.00;;;;;;2613030;54;20166;-62
2024/03/29 10:47:13;;;;;;;0.70;0.60;;;21.20;1.00;;;;;;2613147;47;20435;-62
2024/03/29 10:49:41;;;;;;;0.70;0.60;;;21.20;1.00;;;;;;2613118;54;20400;-62
2024/03/29 10:52:08;;;;;;;0.70;0.50;;;21.20;1.00;;;;;;2613196;39;20833;-61
2024/03/29 10:54:35;;;;;;;0.63;0.47;;;21.20;1.00;;;;;;2613515;39;20962;-61
2024/03/29 10:57:10;;;;;;;0.70;0.50;;;21.20;1.00;;;;;;2613603;39;20863;-62
2024/03/29 10:59:45;;;;;;;0.60;0.50;;;21.20;1.00;;;;;;2613257;54;20462;-62
2024/03/29 11:02:25;;;;;;;0.63;0.50;;;21.20;1.00;;;;;;2611843;54;20972;-62
2024/03/29 11:04:51;;;;;;;0.70;0.50;;;21.20;1.00;;;;;;2613589;54;20459;-62
2024/03/29 11:07:22;;;;;;;0.60;0.40;;;21.20;1.00;;;;;;2612666;54;20432;-63
2024/03/29 11:09:52;;;;;;;0.70;0.50;;;21.20;1.00;;;;;;2612786;47;20423;-62
2024/03/29 11:12:20;;;;;;;0.60;0.50;;;21.20;1.00;;;;;;2612891;54;20427;-62
2024/03/29 11:14:55;;;;;;;0.70;0.50;;;21.20;1.00;;;;;;2613779;39;20925;-62
2024/03/29 11:17:21;;;;;;;0.70;0.60;;;21.20;1.00;;;;;;2613020;54;20426;-62
2024/03/29 11:19:47;;;;;;;0.67;0.60;;;21.20;1.00;;;;;;2613129;47;20526;-61
2024/03/29 11:22:13;;;;;;;0.63;0.50;;;21.20;1.00;;;;;;2612941;39;20638;-61
2024/03/29 11:24:40;;;;;;;0.70;0.50;;;21.20;1.00;;;;;;2612880;54;20412;-61
2024/03/29 11:27:10;;;;;;;0.60;0.47;;;21.20;1.00;;;;;;2612844;54;21035;-63
2024/03/29 11:29:40;;;;;;;0.60;0.50;;;21.30;1.00;;;;;;2613426;47;20408;-62
2024/03/29 11:32:06;;;;;;;0.70;0.40;;;21.30;1.00;;;;;;2613211;54;20425;-62
2024/03/29 11:34:32;;;;;;;0.60;0.40;;;21.30;1.00;;;;;;2612995;54;20419;-63
2024/03/29 11:37:09;;;;;;;0.60;0.50;;;21.30;1.00;;;;;;2612892;39;20871;-63
2024/03/29 11:39:36;;;;;;;0.70;0.50;;;21.30;1.00;;;;;;2612943;54;20429;-64
2024/03/29 11:42:02;;;;;;;0.60;0.50;;;21.30;1.00;;;;;;2612628;54;20386;-63
2024/03/29 11:44:28;;;;;;;0.60;0.50;;;21.30;1.00;;;;;;2613267;50;20407;-64
2024/03/29 11:46:58;;;;;;;0.60;0.50;;;21.40;1.00;;;;;;2613532;54;21111;-62
2024/03/29 11:49:23;;;;;;;0.60;0.40;;;21.40;1.00;;;;;;2613193;47;20189;-63
2024/03/29 11:51:49;;;;;;;0.60;0.40;;;21.40;1.00;;;;;;2613026;47;20961;-62
2024/03/29 11:54:15;;;;;;;0.60;0.50;;;21.40;1.00;;;;;;2612958;31;20926;-63
2024/03/29 11:56:42;;;;;;;0.60;0.40;;;21.40;1.00;;;;;;2612905;54;20640;-63
2024/03/29 11:59:09;;;;;;;0.60;0.47;;;21.40;1.00;;;;;;2613092;51;20427;-63
2024/03/29 12:01:39;;;;;;;0.60;0.40;;;21.40;1.00;;;;;;2612605;31;20897;-62
2024/03/29 12:04:04;;;;;;;0.70;0.50;;;21.40;1.00;;;;;;2612300;39;20862;-62
2024/03/29 12:06:31;;;;;;;0.70;0.50;;;21.40;1.00;;;;;;2613033;54;20435;-63
2024/03/29 12:08:57;;;;;;;0.70;0.50;;;21.40;1.00;;;;;;2612899;54;20147;-62
2024/03/29 12:11:23;;;;;;;0.60;0.40;;;21.40;1.00;;;;;;2613156;54;20455;-63
2024/03/29 12:13:49;;;;;;;0.63;0.50;;;21.40;1.00;;;;;;2612407;54;20446;-63
2024/03/29 12:16:15;;;;;;;0.70;0.50;;;21.40;1.00;;;;;;2612825;47;20437;-63
2024/03/29 12:18:41;;;;;;;0.70;0.50;;;21.40;1.00;;;;;;2612890;54;20162;-63
2024/03/29 12:21:09;;;;;;;0.60;0.47;;;21.30;1.00;;;;;;2612865;54;20572;-63
2024/03/29 12:23:35;;;;;;;0.70;0.50;;;21.40;1.00;;;;;;2614303;39;20806;-63
2024/03/29 12:26:00;;;;;;;1.20;0.90;;;21.30;1.00;;;;;;2613594;54;20460;-63
2024/03/29 12:28:27;;;;;;;0.60;0.40;;;21.30;1.00;;;;;;2613944;54;20541;-64
2024/03/29 12:30:54;;;;;;;0.67;0.50;;;21.40;1.00;;;;;;2613646;39;20595;-64
2024/03/29 12:33:21;;;;;;;0.60;0.40;;;21.30;1.00;;;;;;2613640;47;20495;-63
2024/03/29 12:35:49;;;;;;;0.60;0.50;;;21.30;1.00;;;;;;2613668;47;20443;-63
2024/03/29 12:38:20;;;;;;;0.70;0.50;;;21.30;1.00;;;;;;2613564;54;20419;-64
2024/03/29 12:40:50;;;;;;;0.60;0.40;;;21.30;1.00;;;;;;2613710;39;20478;-63
2024/03/29 12:43:21;;;;;;;0.60;0.40;;;21.30;1.00;;;;;;2613472;54;20431;-63
2024/03/29 12:45:49;;;;;;;0.70;0.50;;;21.30;1.00;;;;;;2613313;54;20422;-59
2024/03/29 12:48:17;;;;;;;0.60;0.50;;;21.30;1.00;;;;;;2613706;39;20872;-60
2024/03/29 12:50:44;;;;;;;0.63;0.50;;;21.30;1.00;;;;;;2613422;47;20469;-59
2024/03/29 12:53:12;;;;;;;0.60;0.40;;;21.30;1.00;;;;;;2613388;39;20711;-59
2024/03/29 12:55:44;;;;;;;0.60;0.40;;;21.40;1.00;;;;;;2613428;54;20419;-61
2024/03/29 12:58:11;;;;;;;0.60;0.40;;;21.30;1.00;;;;;;2614179;39;20818;-60
2024/03/29 13:00:37;;;;;;;0.60;0.50;;;21.30;1.00;;;;;;2612855;54;20427;-59
2024/03/29 13:03:03;;;;;;;0.60;0.50;;;21.40;1.00;;;;;;2611717;54;20426;-60
2024/03/29 13:05:34;;;;;;;0.60;0.50;;;21.40;1.00;;;;;;2614003;47;20394;-60